Terminal Aerodrome Forecast
Issued by NWS

Home | Current Version | Previous Version | Text Only | Print | Product List | Glossary On
Versions: 1 2 3 4 5 6 7 8 9 10 11 12 13 14 15 16 17
000
FTUS41 KCAR 231700
TAFPQI
TAF
KPQI 231723Z 2318/2418 04010G18KT P6SM SCT020 OVC035
     FM232200 04011KT 6SM -RA OVC025
     FM240000 03010KT 4SM -RA BR OVC012
     FM241600 01010KT 3SM -RA BR OVC008
      AMD LTD TO CLD VIS AND WIND=

USA.gov is the U.S. government's official web portal to all federal, state and local government web resources and services.